РПИ Ташкент

Руководитель РПИ

Evgeny Vygornitsky*

Инструкторы РПИ
Evgeny Vygornitsky (Supervisor)
Vitaliy Alekseyev (Instructor)
Входит в состав
ЗЦ Центральная Азия

Диспетчеры РПИ

Диспетчер Рейтинг Допуски *

Аэропорты РПИ

ICAO Город Название Погода
UTTT Ташкент Ташкент UTTT 161930Z 03006KT 9999 FEW066CB 11/08 Q1012 R08R/19//60 NOSIG
UTNU Ургенч Ургенч UTNU 161900Z 04004KT CAVOK M01/M03 Q1018 R31/CLRD70 NOSIG
UTKF
UTKA Андижан Андижан
UTFN Наманган Наманган UTFN 161930Z 31006KT 4100 BR NSC 07/M01 Q1011 R28/CLRD70 NOSIG
UTNN Нукус Нукус UTNN 161930Z 00000KT CAVOK M01/M03 Q1019 R33/CLRD60 NOSIG